sensor_id;sensor_type;location;lat;lon;timestamp;pressure;altitude;pressure_sealevel;temperature;humidity
30463;BME280;17256;43.618;25.336;2022-08-25T00:02:06;100360.22;;;23.97;100.00
30463;BME280;17256;43.618;25.336;2022-08-25T00:04:33;100294.75;;;23.43;100.00
30463;BME280;17256;43.618;25.336;2022-08-25T00:07:01;100347.78;;;23.74;100.00
30463;BME280;17256;43.618;25.336;2022-08-25T00:09:34;100276.69;;;23.20;100.00
30463;BME280;17256;43.618;25.336;2022-08-25T00:12:07;100366.53;;;23.78;100.00
30463;BME280;17256;43.618;25.336;2022-08-25T00:14:42;100276.69;;;23.20;100.00
30463;BME280;17256;43.618;25.336;2022-08-25T00:17:08;100366.28;;;23.75;100.00
30463;BME280;17256;43.618;25.336;2022-08-25T00:19:35;100245.53;;;22.93;100.00
30463;BME280;17256;43.618;25.336;2022-08-25T00:22:01;100337.31;;;23.45;100.00
30463;BME280;17256;43.618;25.336;2022-08-25T00:24:28;100270.09;;;23.06;100.00
30463;BME280;17256;43.618;25.336;2022-08-25T00:26:55;100361.91;;;23.53;100.00
30463;BME280;17256;43.618;25.336;2022-08-25T00:29:23;100363.09;;;23.47;100.00
30463;BME280;17256;43.618;25.336;2022-08-25T00:31:50;100328.47;;;23.33;100.00
30463;BME280;17256;43.618;25.336;2022-08-25T00:34:21;100298.06;;;23.11;100.00
30463;BME280;17256;43.618;25.336;2022-08-25T00:36:47;100331.56;;;23.26;100.00
30463;BME280;17256;43.618;25.336;2022-08-25T00:39:17;100346.56;;;23.46;100.00
30463;BME280;17256;43.618;25.336;2022-08-25T00:41:45;100322.03;;;23.27;100.00
30463;BME280;17256;43.618;25.336;2022-08-25T00:44:14;100278.63;;;22.86;100.00
30463;BME280;17256;43.618;25.336;2022-08-25T00:46:49;100346.34;;;23.37;100.00
30463;BME280;17256;43.618;25.336;2022-08-25T00:49:26;100249.53;;;22.71;100.00
30463;BME280;17256;43.618;25.336;2022-08-25T00:52:00;100309.81;;;23.13;100.00
30463;BME280;17256;43.618;25.336;2022-08-25T00:54:40;100296.47;;;22.95;100.00
30463;BME280;17256;43.618;25.336;2022-08-25T00:57:31;100336.06;;;23.22;100.00
30463;BME280;17256;43.618;25.336;2022-08-25T00:59:57;100259.06;;;22.70;100.00
30463;BME280;17256;43.618;25.336;2022-08-25T01:02:23;100229.25;;;22.46;100.00
30463;BME280;17256;43.618;25.336;2022-08-25T01:04:49;100300.16;;;22.90;100.00
30463;BME280;17256;43.618;25.336;2022-08-25T01:07:17;100345.91;;;23.20;100.00
30463;BME280;17256;43.618;25.336;2022-08-25T01:09:45;100351.50;;;23.20;100.00
30463;BME280;17256;43.618;25.336;2022-08-25T01:12:12;100323.84;;;23.03;100.00
30463;BME280;17256;43.618;25.336;2022-08-25T01:14:38;100362.16;;;23.18;100.00
30463;BME280;17256;43.618;25.336;2022-08-25T01:17:03;100282.31;;;22.66;100.00
30463;BME280;17256;43.618;25.336;2022-08-25T01:19:30;100321.75;;;22.85;100.00
30463;BME280;17256;43.618;25.336;2022-08-25T01:21:58;100273.97;;;22.51;100.00
30463;BME280;17256;43.618;25.336;2022-08-25T01:24:43;100316.47;;;22.63;100.00
30463;BME280;17256;43.618;25.336;2022-08-25T01:27:11;100360.28;;;23.03;100.00
30463;BME280;17256;43.618;25.336;2022-08-25T01:29:37;100365.59;;;22.99;100.00
30463;BME280;17256;43.618;25.336;2022-08-25T01:32:06;100165.44;;;21.73;100.00
30463;BME280;17256;43.618;25.336;2022-08-25T01:34:36;100349.69;;;22.80;100.00
30463;BME280;17256;43.618;25.336;2022-08-25T01:37:03;100334.63;;;22.86;100.00
30463;BME280;17256;43.618;25.336;2022-08-25T01:39:30;100369.28;;;22.95;100.00
30463;BME280;17256;43.618;25.336;2022-08-25T01:42:27;100362.00;;;22.94;100.00
30463;BME280;17256;43.618;25.336;2022-08-25T01:44:54;100314.19;;;22.70;100.00
30463;BME280;17256;43.618;25.336;2022-08-25T01:47:19;100219.03;;;22.05;100.00
30463;BME280;17256;43.618;25.336;2022-08-25T01:49:45;100197.84;;;21.79;100.00
30463;BME280;17256;43.618;25.336;2022-08-25T01:52:14;100349.19;;;22.83;100.00
30463;BME280;17256;43.618;25.336;2022-08-25T01:54:40;100196.09;;;21.98;100.00
30463;BME280;17256;43.618;25.336;2022-08-25T01:57:06;100256.69;;;22.38;100.00
30463;BME280;17256;43.618;25.336;2022-08-25T01:59:31;100202.84;;;22.07;100.00
30463;BME280;17256;43.618;25.336;2022-08-25T02:01:57;100324.53;;;22.85;100.00
30463;BME280;17256;43.618;25.336;2022-08-25T02:04:22;100287.69;;;22.52;100.00
30463;BME280;17256;43.618;25.336;2022-08-25T02:06:48;100196.41;;;21.97;100.00
30463;BME280;17256;43.618;25.336;2022-08-25T02:09:16;100322.03;;;22.73;100.00
30463;BME280;17256;43.618;25.336;2022-08-25T02:11:45;100216.53;;;22.04;100.00
30463;BME280;17256;43.618;25.336;2022-08-25T02:14:13;100269.31;;;22.31;100.00
30463;BME280;17256;43.618;25.336;2022-08-25T02:16:43;100328.47;;;22.73;100.00
30463;BME280;17256;43.618;25.336;2022-08-25T02:19:10;100203.09;;;21.96;100.00
30463;BME280;17256;43.618;25.336;2022-08-25T02:21:37;100319.81;;;22.70;100.00
30463;BME280;17256;43.618;25.336;2022-08-25T02:24:04;100287.16;;;22.45;100.00
30463;BME280;17256;43.618;25.336;2022-08-25T02:26:30;100262.63;;;22.22;100.00
30463;BME280;17256;43.618;25.336;2022-08-25T02:28:56;100176.09;;;21.56;100.00
30463;BME280;17256;43.618;25.336;2022-08-25T02:31:23;100181.13;;;21.59;100.00
30463;BME280;17256;43.618;25.336;2022-08-25T02:33:50;100220.50;;;21.83;100.00
30463;BME280;17256;43.618;25.336;2022-08-25T02:36:16;100333.88;;;22.45;100.00
30463;BME280;17256;43.618;25.336;2022-08-25T02:38:42;100231.09;;;21.75;100.00
30463;BME280;17256;43.618;25.336;2022-08-25T02:41:21;100268.28;;;21.86;100.00
30463;BME280;17256;43.618;25.336;2022-08-25T02:43:48;100154.31;;;21.22;100.00
30463;BME280;17256;43.618;25.336;2022-08-25T02:46:16;100160.22;;;21.26;100.00
30463;BME280;17256;43.618;25.336;2022-08-25T02:48:42;100166.09;;;21.24;100.00
30463;BME280;17256;43.618;25.336;2022-08-25T02:51:09;100253.75;;;21.84;100.00
30463;BME280;17256;43.618;25.336;2022-08-25T02:53:37;100146.22;;;21.00;100.00
30463;BME280;17256;43.618;25.336;2022-08-25T02:56:07;100215.50;;;21.44;100.00
30463;BME280;17256;43.618;25.336;2022-08-25T02:58:34;100206.31;;;21.38;100.00
30463;BME280;17256;43.618;25.336;2022-08-25T03:04:07;100120.56;;;20.88;100.00
30463;BME280;17256;43.618;25.336;2022-08-25T03:06:32;100135.91;;;20.91;100.00
30463;BME280;17256;43.618;25.336;2022-08-25T03:08:58;100195.41;;;21.37;100.00
30463;BME280;17256;43.618;25.336;2022-08-25T03:11:24;100212.72;;;21.44;100.00
30463;BME280;17256;43.618;25.336;2022-08-25T03:13:51;100141.22;;;20.92;100.00
30463;BME280;17256;43.618;25.336;2022-08-25T03:23:04;100346.56;;;22.12;100.00
30463;BME280;17256;43.618;25.336;2022-08-25T03:25:30;100221.94;;;21.34;100.00
30463;BME280;17256;43.618;25.336;2022-08-25T03:28:19;100352.16;;;22.12;100.00
30463;BME280;17256;43.618;25.336;2022-08-25T03:30:44;100203.19;;;21.04;100.00
30463;BME280;17256;43.618;25.336;2022-08-25T03:33:11;100317.50;;;21.82;100.00
30463;BME280;17256;43.618;25.336;2022-08-25T03:35:37;100233.34;;;21.23;100.00
30463;BME280;17256;43.618;25.336;2022-08-25T03:38:03;99996.56;;;19.77;100.00
30463;BME280;17256;43.618;25.336;2022-08-25T03:40:29;100365.56;;;22.04;100.00
30463;BME280;17256;43.618;25.336;2022-08-25T03:42:55;100282.28;;;21.61;100.00
30463;BME280;17256;43.618;25.336;2022-08-25T03:45:21;100391.03;;;22.13;100.00
30463;BME280;17256;43.618;25.336;2022-08-25T03:51:11;100233.63;;;21.21;100.00
30463;BME280;17256;43.618;25.336;2022-08-25T03:53:36;100196.19;;;21.02;100.00
30463;BME280;17256;43.618;25.336;2022-08-25T03:56:02;100214.09;;;21.21;100.00
30463;BME280;17256;43.618;25.336;2022-08-25T03:58:28;100236.75;;;21.45;100.00
30463;BME280;17256;43.618;25.336;2022-08-25T04:00:54;100171.91;;;20.97;100.00
30463;BME280;17256;43.618;25.336;2022-08-25T04:03:21;100176.41;;;21.24;100.00
30463;BME280;17256;43.618;25.336;2022-08-25T04:05:46;100194.03;;;21.34;100.00
30463;BME280;17256;43.618;25.336;2022-08-25T04:08:12;100375.56;;;22.51;100.00
30463;BME280;17256;43.618;25.336;2022-08-25T04:10:37;100249.00;;;21.74;100.00
30463;BME280;17256;43.618;25.336;2022-08-25T04:13:03;100273.00;;;22.01;100.00
30463;BME280;17256;43.618;25.336;2022-08-25T04:15:28;100222.47;;;21.67;100.00
30463;BME280;17256;43.618;25.336;2022-08-25T04:17:54;100296.47;;;22.20;100.00
30463;BME280;17256;43.618;25.336;2022-08-25T04:23:18;100276.88;;;22.25;100.00
30463;BME280;17256;43.618;25.336;2022-08-25T04:25:43;100334.13;;;22.53;100.00
30463;BME280;17256;43.618;25.336;2022-08-25T04:31:30;100374.31;;;22.98;100.00
30463;BME280;17256;43.618;25.336;2022-08-25T04:33:56;100314.25;;;22.60;100.00
30463;BME280;17256;43.618;25.336;2022-08-25T04:36:22;100298.84;;;22.62;100.00
30463;BME280;17256;43.618;25.336;2022-08-25T04:38:48;100308.84;;;22.79;100.00
30463;BME280;17256;43.618;25.336;2022-08-25T04:41:17;100374.47;;;23.22;100.00
30463;BME280;17256;43.618;25.336;2022-08-25T04:43:44;100387.91;;;23.20;100.00
30463;BME280;17256;43.618;25.336;2022-08-25T04:46:21;100378.06;;;23.32;100.00
30463;BME280;17256;43.618;25.336;2022-08-25T04:48:49;100390.06;;;23.38;100.00
30463;BME280;17256;43.618;25.336;2022-08-25T04:51:22;100314.31;;;23.04;100.00
30463;BME280;17256;43.618;25.336;2022-08-25T04:53:49;100384.13;;;23.45;100.00
30463;BME280;17256;43.618;25.336;2022-08-25T04:56:18;100312.56;;;23.18;100.00
30463;BME280;17256;43.618;25.336;2022-08-25T05:02:24;100380.47;;;23.88;100.00
30463;BME280;17256;43.618;25.336;2022-08-25T05:04:50;100347.59;;;23.65;100.00
30463;BME280;17256;43.618;25.336;2022-08-25T05:07:16;100369.97;;;24.04;100.00
30463;BME280;17256;43.618;25.336;2022-08-25T05:09:42;100349.47;;;24.09;100.00
30463;BME280;17256;43.618;25.336;2022-08-25T05:12:07;100311.09;;;23.99;100.00
30463;BME280;17256;43.618;25.336;2022-08-25T05:14:33;100367.78;;;24.30;100.00
30463;BME280;17256;43.618;25.336;2022-08-25T05:16:59;100358.34;;;24.16;100.00
30463;BME280;17256;43.618;25.336;2022-08-25T05:19:25;100389.47;;;24.48;100.00
30463;BME280;17256;43.618;25.336;2022-08-25T05:25:51;100373.81;;;24.42;100.00
30463;BME280;17256;43.618;25.336;2022-08-25T05:28:19;100381.06;;;24.72;100.00
30463;BME280;17256;43.618;25.336;2022-08-25T05:30:45;100388.25;;;24.83;100.00
30463;BME280;17256;43.618;25.336;2022-08-25T05:33:14;100365.59;;;24.75;100.00
30463;BME280;17256;43.618;25.336;2022-08-25T05:35:41;100397.84;;;25.06;100.00
30463;BME280;17256;43.618;25.336;2022-08-25T05:38:34;100393.47;;;25.57;100.00
30463;BME280;17256;43.618;25.336;2022-08-25T05:41:05;100392.03;;;25.59;100.00
30463;BME280;17256;43.618;25.336;2022-08-25T05:43:31;100360.63;;;25.52;100.00
30463;BME280;17256;43.618;25.336;2022-08-25T05:45:57;100394.56;;;25.80;100.00
30463;BME280;17256;43.618;25.336;2022-08-25T05:48:24;100396.88;;;25.91;100.00
30463;BME280;17256;43.618;25.336;2022-08-25T05:51:04;100337.84;;;25.72;100.00
30463;BME280;17256;43.618;25.336;2022-08-25T05:53:35;100382.59;;;25.88;100.00
30463;BME280;17256;43.618;25.336;2022-08-25T05:56:01;100383.38;;;25.74;100.00
30463;BME280;17256;43.618;25.336;2022-08-25T05:58:27;100381.63;;;25.79;100.00
30463;BME280;17256;43.618;25.336;2022-08-25T06:00:54;100400.81;;;26.09;100.00
30463;BME280;17256;43.618;25.336;2022-08-25T06:03:20;100354.03;;;26.13;100.00
30463;BME280;17256;43.618;25.336;2022-08-25T06:05:46;100372.84;;;26.31;100.00
30463;BME280;17256;43.618;25.336;2022-08-25T06:08:12;100358.06;;;26.40;100.00
30463;BME280;17256;43.618;25.336;2022-08-25T06:10:38;100409.63;;;26.95;100.00
30463;BME280;17256;43.618;25.336;2022-08-25T06:13:04;100369.66;;;26.65;100.00
30463;BME280;17256;43.618;25.336;2022-08-25T06:15:30;100372.78;;;26.91;100.00
30463;BME280;17256;43.618;25.336;2022-08-25T06:17:56;100380.72;;;26.89;100.00
30463;BME280;17256;43.618;25.336;2022-08-25T06:20:25;100395.56;;;26.81;100.00
30463;BME280;17256;43.618;25.336;2022-08-25T06:22:51;100368.00;;;26.92;100.00
30463;BME280;17256;43.618;25.336;2022-08-25T06:25:19;100401.25;;;27.45;92.79
30463;BME280;17256;43.618;25.336;2022-08-25T06:27:45;100399.47;;;27.63;88.94
30463;BME280;17256;43.618;25.336;2022-08-25T06:30:13;100378.41;;;27.82;80.54
30463;BME280;17256;43.618;25.336;2022-08-25T06:32:41;100288.13;;;27.46;78.56
30463;BME280;17256;43.618;25.336;2022-08-25T06:35:11;100321.25;;;27.41;77.58
30463;BME280;17256;43.618;25.336;2022-08-25T06:38:10;100400.53;;;27.89;74.66
30463;BME280;17256;43.618;25.336;2022-08-25T06:40:39;100372.56;;;27.79;75.87
30463;BME280;17256;43.618;25.336;2022-08-25T06:43:04;100380.63;;;27.94;73.55
30463;BME280;17256;43.618;25.336;2022-08-25T06:52:14;100376.59;;;28.09;71.93
30463;BME280;17256;43.618;25.336;2022-08-25T06:54:40;100295.66;;;27.73;63.80
30463;BME280;17256;43.618;25.336;2022-08-25T06:57:13;100352.06;;;28.18;62.15
30463;BME280;17256;43.618;25.336;2022-08-25T06:59:39;100374.28;;;28.64;58.97
30463;BME280;17256;43.618;25.336;2022-08-25T07:02:05;100340.78;;;28.18;61.29
30463;BME280;17256;43.618;25.336;2022-08-25T07:04:33;100359.50;;;28.36;61.57
30463;BME280;17256;43.618;25.336;2022-08-25T07:06:59;100389.13;;;28.78;58.59
30463;BME280;17256;43.618;25.336;2022-08-25T07:09:25;100342.59;;;28.85;59.55
30463;BME280;17256;43.618;25.336;2022-08-25T07:11:50;100352.28;;;28.92;58.02
30463;BME280;17256;43.618;25.336;2022-08-25T07:14:17;100389.78;;;28.75;55.94
30463;BME280;17256;43.618;25.336;2022-08-25T07:16:43;100387.03;;;28.93;57.73
30463;BME280;17256;43.618;25.336;2022-08-25T07:19:10;100387.81;;;29.33;57.39
30463;BME280;17256;43.618;25.336;2022-08-25T07:21:50;100384.00;;;29.37;55.82
30463;BME280;17256;43.618;25.336;2022-08-25T07:24:17;100383.38;;;29.58;56.55
30463;BME280;17256;43.618;25.336;2022-08-25T07:27:14;100388.41;;;30.04;54.66
30463;BME280;17256;43.618;25.336;2022-08-25T07:29:40;100334.75;;;29.90;53.75
30463;BME280;17256;43.618;25.336;2022-08-25T07:32:05;100337.38;;;30.30;53.00
30463;BME280;17256;43.618;25.336;2022-08-25T07:34:31;100377.22;;;30.72;52.37
30463;BME280;17256;43.618;25.336;2022-08-25T07:37:16;100349.94;;;30.03;50.90
30463;BME280;17256;43.618;25.336;2022-08-25T07:39:41;100351.53;;;29.18;52.27
30463;BME280;17256;43.618;25.336;2022-08-25T07:42:07;100372.94;;;28.62;54.10
30463;BME280;17256;43.618;25.336;2022-08-25T07:44:33;100349.56;;;28.78;56.45
30463;BME280;17256;43.618;25.336;2022-08-25T07:46:59;100377.25;;;28.99;54.00
30463;BME280;17256;43.618;25.336;2022-08-25T07:49:32;100341.78;;;28.84;54.60
30463;BME280;17256;43.618;25.336;2022-08-25T07:51:57;100368.00;;;29.24;53.84
30463;BME280;17256;43.618;25.336;2022-08-25T07:54:23;100386.84;;;29.46;53.64
30463;BME280;17256;43.618;25.336;2022-08-25T07:56:51;100309.31;;;28.73;52.01
30463;BME280;17256;43.618;25.336;2022-08-25T07:59:17;100379.72;;;28.92;53.33
30463;BME280;17256;43.618;25.336;2022-08-25T08:01:43;100282.50;;;28.53;53.23
30463;BME280;17256;43.618;25.336;2022-08-25T08:04:09;100342.50;;;28.98;52.69
30463;BME280;17256;43.618;25.336;2022-08-25T08:06:34;100359.72;;;29.36;51.29
30463;BME280;17256;43.618;25.336;2022-08-25T08:09:00;100254.53;;;29.17;50.87
30463;BME280;17256;43.618;25.336;2022-08-25T08:11:31;100369.41;;;30.05;49.26
30463;BME280;17256;43.618;25.336;2022-08-25T08:14:15;100328.47;;;29.59;52.56
30463;BME280;17256;43.618;25.336;2022-08-25T08:16:41;100316.09;;;29.20;51.81
30463;BME280;17256;43.618;25.336;2022-08-25T08:19:06;100276.47;;;28.86;52.02
30463;BME280;17256;43.618;25.336;2022-08-25T08:21:35;100348.06;;;29.29;51.55
30463;BME280;17256;43.618;25.336;2022-08-25T08:24:01;100359.91;;;29.83;51.54
30463;BME280;17256;43.618;25.336;2022-08-25T08:26:28;100310.81;;;29.62;51.30
30463;BME280;17256;43.618;25.336;2022-08-25T08:28:54;100198.63;;;28.79;49.46
30463;BME280;17256;43.618;25.336;2022-08-25T08:31:22;100357.75;;;29.46;50.90
30463;BME280;17256;43.618;25.336;2022-08-25T08:34:05;100318.28;;;29.49;51.71
30463;BME280;17256;43.618;25.336;2022-08-25T08:36:31;100360.22;;;29.90;49.56
30463;BME280;17256;43.618;25.336;2022-08-25T08:38:57;100289.00;;;29.62;51.69
30463;BME280;17256;43.618;25.336;2022-08-25T08:55:52;100339.03;;;30.78;50.00
30463;BME280;17256;43.618;25.336;2022-08-25T08:58:26;100359.28;;;30.97;50.04
30463;BME280;17256;43.618;25.336;2022-08-25T09:00:56;100251.34;;;31.02;50.02
30463;BME280;17256;43.618;25.336;2022-08-25T09:03:48;100357.19;;;31.86;48.53
30463;BME280;17256;43.618;25.336;2022-08-25T09:06:27;100329.63;;;31.87;47.70
30463;BME280;17256;43.618;25.336;2022-08-25T09:08:57;100309.16;;;31.93;47.23
30463;BME280;17256;43.618;25.336;2022-08-25T09:19:23;100344.34;;;32.34;47.80
30463;BME280;17256;43.618;25.336;2022-08-25T09:28:19;100281.34;;;31.87;49.93
30463;BME280;17256;43.618;25.336;2022-08-25T09:31:01;100305.38;;;31.68;48.52
30463;BME280;17256;43.618;25.336;2022-08-25T09:33:30;100300.53;;;31.69;48.61
30463;BME280;17256;43.618;25.336;2022-08-25T09:35:56;100322.66;;;31.96;48.46
30463;BME280;17256;43.618;25.336;2022-08-25T09:38:24;100270.91;;;31.78;48.68
30463;BME280;17256;43.618;25.336;2022-08-25T09:40:53;100317.81;;;32.42;47.39
30463;BME280;17256;43.618;25.336;2022-08-25T09:49:12;100290.94;;;32.27;47.97
30463;BME280;17256;43.618;25.336;2022-08-25T09:51:40;100282.19;;;32.32;47.87
30463;BME280;17256;43.618;25.336;2022-08-25T10:03:33;100276.66;;;32.03;46.91
30463;BME280;17256;43.618;25.336;2022-08-25T10:06:11;100294.28;;;32.54;47.31
30463;BME280;17256;43.618;25.336;2022-08-25T10:08:52;100243.88;;;32.05;46.62
30463;BME280;17256;43.618;25.336;2022-08-25T10:11:47;100282.31;;;33.09;45.08
30463;BME280;17256;43.618;25.336;2022-08-25T10:14:39;100280.03;;;33.15;45.31
30463;BME280;17256;43.618;25.336;2022-08-25T10:17:18;100262.50;;;33.13;45.87
30463;BME280;17256;43.618;25.336;2022-08-25T10:20:16;100246.91;;;32.82;44.96
30463;BME280;17256;43.618;25.336;2022-08-25T10:22:39;100257.69;;;32.89;44.23
30463;BME280;17256;43.618;25.336;2022-08-25T10:25:08;100241.59;;;32.56;44.57
30463;BME280;17256;43.618;25.336;2022-08-25T10:36:18;100267.19;;;32.81;44.35
30463;BME280;17256;43.618;25.336;2022-08-25T10:38:51;100225.94;;;32.74;43.53
30463;BME280;17256;43.618;25.336;2022-08-25T11:07:34;100230.41;;;33.40;41.50
30463;BME280;17256;43.618;25.336;2022-08-25T11:10:11;100181.47;;;32.94;41.79
30463;BME280;17256;43.618;25.336;2022-08-25T11:12:49;100214.34;;;33.20;42.07
30463;BME280;17256;43.618;25.336;2022-08-25T11:16:10;100111.44;;;32.50;40.80
30463;BME280;17256;43.618;25.336;2022-08-25T11:18:13;100214.47;;;33.23;42.42
30463;BME280;17256;43.618;25.336;2022-08-25T11:23:20;100095.47;;;33.13;40.05
30463;BME280;17256;43.618;25.336;2022-08-25T11:25:56;100188.66;;;33.72;39.37
30463;BME280;17256;43.618;25.336;2022-08-25T11:28:46;100207.25;;;33.98;39.01
30463;BME280;17256;43.618;25.336;2022-08-25T11:31:14;100212.56;;;34.15;39.75
30463;BME280;17256;43.618;25.336;2022-08-25T11:33:42;100075.66;;;33.17;38.53
30463;BME280;17256;43.618;25.336;2022-08-25T11:39:10;100180.66;;;33.78;38.74
30463;BME280;17256;43.618;25.336;2022-08-25T11:55:28;100180.41;;;34.14;38.22
30463;BME280;17256;43.618;25.336;2022-08-25T12:00:43;100150.28;;;33.98;39.30
30463;BME280;17256;43.618;25.336;2022-08-25T12:11:55;100174.53;;;34.07;37.82
30463;BME280;17256;43.618;25.336;2022-08-25T12:27:39;100096.78;;;34.22;36.86
30463;BME280;17256;43.618;25.336;2022-08-25T12:38:45;100122.75;;;34.52;35.63
30463;BME280;17256;43.618;25.336;2022-08-25T12:41:22;100150.66;;;34.63;36.63
30463;BME280;17256;43.618;25.336;2022-08-25T12:43:51;100098.47;;;34.43;35.44
30463;BME280;17256;43.618;25.336;2022-08-25T12:48:53;100134.00;;;34.45;36.77
30463;BME280;17256;43.618;25.336;2022-08-25T12:51:21;100091.38;;;34.52;36.61
30463;BME280;17256;43.618;25.336;2022-08-25T12:56:21;100116.66;;;34.54;35.74
30463;BME280;17256;43.618;25.336;2022-08-25T12:59:11;100131.41;;;34.75;35.27
30463;BME280;17256;43.618;25.336;2022-08-25T13:07:46;100119.19;;;34.94;35.62
30463;BME280;17256;43.618;25.336;2022-08-25T13:10:23;100123.47;;;34.84;35.83
30463;BME280;17256;43.618;25.336;2022-08-25T13:13:05;100123.22;;;34.74;35.42
30463;BME280;17256;43.618;25.336;2022-08-25T13:15:41;100119.50;;;34.89;35.43
30463;BME280;17256;43.618;25.336;2022-08-25T13:18:27;100071.41;;;34.52;34.95
30463;BME280;17256;43.618;25.336;2022-08-25T13:23:42;100113.13;;;34.96;34.78
30463;BME280;17256;43.618;25.336;2022-08-25T13:26:13;100109.47;;;34.95;34.97
30463;BME280;17256;43.618;25.336;2022-08-25T13:28:41;100090.78;;;34.82;34.83
30463;BME280;17256;43.618;25.336;2022-08-25T13:31:15;100100.78;;;34.72;34.63
30463;BME280;17256;43.618;25.336;2022-08-25T13:36:18;100082.59;;;34.80;34.31
30463;BME280;17256;43.618;25.336;2022-08-25T13:39:19;100089.00;;;35.12;34.95
30463;BME280;17256;43.618;25.336;2022-08-25T13:41:47;100095.38;;;35.25;34.64
30463;BME280;17256;43.618;25.336;2022-08-25T13:44:16;100056.78;;;34.93;34.29
30463;BME280;17256;43.618;25.336;2022-08-25T13:46:43;99954.16;;;34.19;34.17
30463;BME280;17256;43.618;25.336;2022-08-25T13:49:10;100049.81;;;34.90;34.77
30463;BME280;17256;43.618;25.336;2022-08-25T13:51:37;100042.91;;;34.72;33.71
30463;BME280;17256;43.618;25.336;2022-08-25T13:54:08;100052.16;;;34.84;34.41
30463;BME280;17256;43.618;25.336;2022-08-25T13:56:52;100072.00;;;34.97;34.90
30463;BME280;17256;43.618;25.336;2022-08-25T13:59:24;100080.31;;;35.05;34.50
30463;BME280;17256;43.618;25.336;2022-08-25T14:01:52;100076.94;;;35.00;34.05
30463;BME280;17256;43.618;25.336;2022-08-25T14:10:08;100080.72;;;34.69;33.39
30463;BME280;17256;43.618;25.336;2022-08-25T14:12:40;100042.91;;;34.52;34.46
30463;BME280;17256;43.618;25.336;2022-08-25T14:17:45;100082.28;;;34.66;34.55
30463;BME280;17256;43.618;25.336;2022-08-25T14:20:25;100061.06;;;34.83;35.14
30463;BME280;17256;43.618;25.336;2022-08-25T14:23:05;100021.94;;;34.45;35.58
30463;BME280;17256;43.618;25.336;2022-08-25T14:25:31;100006.88;;;34.44;35.94
30463;BME280;17256;43.618;25.336;2022-08-25T14:28:00;100059.41;;;34.63;35.74
30463;BME280;17256;43.618;25.336;2022-08-25T14:30:27;99938.94;;;33.92;35.65
30463;BME280;17256;43.618;25.336;2022-08-25T14:32:54;100012.06;;;34.39;35.99
30463;BME280;17256;43.618;25.336;2022-08-25T14:35:20;100063.09;;;34.63;36.05
30463;BME280;17256;43.618;25.336;2022-08-25T14:37:45;100023.97;;;34.44;36.60
30463;BME280;17256;43.618;25.336;2022-08-25T14:40:12;100014.91;;;34.39;36.14
30463;BME280;17256;43.618;25.336;2022-08-25T14:42:40;100005.53;;;34.38;35.71
30463;BME280;17256;43.618;25.336;2022-08-25T14:45:06;100011.72;;;34.24;35.69
30463;BME280;17256;43.618;25.336;2022-08-25T14:47:32;100045.22;;;34.47;35.57
30463;BME280;17256;43.618;25.336;2022-08-25T14:50:00;100003.22;;;34.09;36.55
30463;BME280;17256;43.618;25.336;2022-08-25T14:52:28;100056.91;;;34.42;37.15
30463;BME280;17256;43.618;25.336;2022-08-25T14:54:55;100054.88;;;34.42;36.31
30463;BME280;17256;43.618;25.336;2022-08-25T14:57:24;100057.34;;;34.44;34.91
30463;BME280;17256;43.618;25.336;2022-08-25T14:59:51;100055.56;;;34.36;34.87
30463;BME280;17256;43.618;25.336;2022-08-25T15:02:19;100037.28;;;34.21;34.20
30463;BME280;17256;43.618;25.336;2022-08-25T15:04:58;100032.97;;;34.11;35.20
30463;BME280;17256;43.618;25.336;2022-08-25T15:07:25;100042.88;;;34.17;35.10
30463;BME280;17256;43.618;25.336;2022-08-25T15:10:09;100039.03;;;34.25;34.86
30463;BME280;17256;43.618;25.336;2022-08-25T15:12:35;99988.75;;;33.98;35.15
30463;BME280;17256;43.618;25.336;2022-08-25T15:15:01;100026.91;;;34.13;35.33
30463;BME280;17256;43.618;25.336;2022-08-25T15:17:28;100000.03;;;33.79;34.91
30463;BME280;17256;43.618;25.336;2022-08-25T15:19:54;99916.06;;;33.22;35.07
30463;BME280;17256;43.618;25.336;2022-08-25T15:22:20;100056.81;;;34.03;34.85
30463;BME280;17256;43.618;25.336;2022-08-25T15:24:45;100044.97;;;34.01;35.02
30463;BME280;17256;43.618;25.336;2022-08-25T15:27:11;100018.91;;;33.83;35.97
30463;BME280;17256;43.618;25.336;2022-08-25T15:29:38;99910.25;;;33.18;35.17
30463;BME280;17256;43.618;25.336;2022-08-25T15:32:06;99957.94;;;33.53;35.31
30463;BME280;17256;43.618;25.336;2022-08-25T15:34:33;99941.59;;;33.34;35.51
30463;BME280;17256;43.618;25.336;2022-08-25T15:37:05;99968.84;;;33.51;35.84
30463;BME280;17256;43.618;25.336;2022-08-25T15:39:31;100040.00;;;33.98;36.38
30463;BME280;17256;43.618;25.336;2022-08-25T15:41:57;99881.84;;;33.02;35.88
30463;BME280;17256;43.618;25.336;2022-08-25T15:44:23;100047.25;;;33.95;36.31
30463;BME280;17256;43.618;25.336;2022-08-25T15:46:50;99980.88;;;33.44;35.96
30463;BME280;17256;43.618;25.336;2022-08-25T15:49:17;100036.16;;;33.75;36.30
30463;BME280;17256;43.618;25.336;2022-08-25T15:51:43;99923.31;;;33.03;36.41
30463;BME280;17256;43.618;25.336;2022-08-25T15:54:10;99996.13;;;33.36;35.29
30463;BME280;17256;43.618;25.336;2022-08-25T15:56:39;100012.53;;;33.43;35.55
30463;BME280;17256;43.618;25.336;2022-08-25T15:59:05;100039.72;;;33.40;35.55